Morgenster — PHMY — position and weather

sailwx.info

Track history (hours):
 
Tides and Currents Weather Stations Pressure Air Temp Water Temp Dewpoint Dewpoint Depression Visibility Wind Speed Wind Dir Waves Ship Positions

Morgenster

Last reported at 2016-Sep-26 01:33 UTC. Time now 2016-Sep-27 17:21 UTC.
Position N 52°57' E 004°46'.

Length 38 m; draft 2.4 m.

Type: Sailing vessel. MMSI: 245136000.

Date/timePositionNaut miles runAvg speedWind from/ knotsBaromVisibWave heightAir tempDewpointWater temp
2016-Sep-26 01:33N 52°57' E 004°46'0 0.0
2016-Sep-25 21:24N 52°57' E 004°46'0 0.0
2016-Sep-25 17:15N 52°57' E 004°46'0 0.0
2016-Sep-25 16:33N 52°57' E 004°46'0 0.0
2016-Sep-25 15:21N 52°57' E 004°46'0 0.0
2016-Sep-25 11:24N 52°57' E 004°46'0 0.0
2016-Sep-25 10:24N 52°57' E 004°46'0 0.0
2016-Sep-25 09:30N 52°57' E 004°46'0 0.0
2016-Sep-25 07:33N 52°57' E 004°46'0 0.0
2016-Sep-25 04:30N 52°57' E 004°46'0 0.0
2016-Sep-25 00:27N 52°57' E 004°46'0 0.0
2016-Sep-24 22:30N 52°57' E 004°46'0 0.0
2016-Sep-24 21:24N 52°57' E 004°46'0 0.0
2016-Sep-24 19:33N 52°57' E 004°46'0 0.0
2016-Sep-24 18:33N 52°57' E 004°46'0 0.0
2016-Sep-24 17:33N 52°57' E 004°46'0 0.0
2016-Sep-24 16:24N 52°57' E 004°46'1 0.3
2016-Sep-24 14:34N 52°57' E 004°47'2 1.0
2016-Sep-24 12:33N 52°59' E 004°46'0 0.1
2016-Sep-24 10:33N 52°59' E 004°46'2 2.5
2016-Sep-24 09:33N 52°57' E 004°47'1 0.1
2016-Sep-24 03:32N 52°57' E 004°46'0 0.0
2016-Sep-24 02:32N 52°57' E 004°46'0 0.0
2016-Sep-24 01:32N 52°57' E 004°46'0 0.0
2016-Sep-24 00:32N 52°57' E 004°46'0 0.0
2016-Sep-23 19:32N 52°57' E 004°46'0 0.0
2016-Sep-23 17:29N 52°57' E 004°46'0 0.0
2016-Sep-23 16:32N 52°57' E 004°46'0 0.0
2016-Sep-23 15:23N 52°57' E 004°46'0 0.0
2016-Sep-23 13:29N 52°58' E 004°46'0 0.0
2016-Sep-23 09:26N 52°57' E 004°46'0 0.0
2016-Sep-23 06:23N 52°57' E 004°46'0 0.0
2016-Sep-23 04:32N 52°57' E 004°46'0 0.0
2016-Sep-23 03:32N 52°57' E 004°46'0 0.0
2016-Sep-23 02:32N 52°57' E 004°46'0 0.0
2016-Sep-23 01:32N 52°57' E 004°46'0 0.0
2016-Sep-23 00:26N 52°57' E 004°46'0 0.0
2016-Sep-22 23:29N 52°57' E 004°46'0 0.0
2016-Sep-22 20:32N 52°57' E 004°46'0 0.0
2016-Sep-22 12:31N 52°57' E 004°46'0 0.0
2016-Sep-22 04:25N 52°57' E 004°46'0 0.0
2016-Sep-22 03:31N 52°57' E 004°46'0 0.0
2016-Sep-22 00:31N 52°57' E 004°46'0 0.0
2016-Sep-21 23:31N 52°57' E 004°46'0 0.0
2016-Sep-21 22:31N 52°57' E 004°46'0 0.0
2016-Sep-21 19:28N 52°57' E 004°46'0 0.0
2016-Sep-21 16:25N 52°57' E 004°46'0 0.0
2016-Sep-21 09:31N 52°57' E 004°46'0 0.0
2016-Sep-21 08:31N 52°57' E 004°46'0 0.0
2016-Sep-21 03:28N 52°57' E 004°46'0 0.0
2016-Sep-21 02:31N 52°57' E 004°46'0 0.0
2016-Sep-20 17:31N 52°57' E 004°46'0 0.0
2016-Sep-20 14:31N 52°57' E 004°46'0 0.0
2016-Sep-20 13:31N 52°57' E 004°46'0 0.0
2016-Sep-20 10:31N 52°57' E 004°46'0 0.0
2016-Sep-20 08:31N 52°57' E 004°46'0 0.3
2016-Sep-20 07:33N 52°57' E 004°47'6 5.9
2016-Sep-20 06:33N 52°54' E 004°38'114 6.0
2016-Sep-19 11:32N 51°51' E 002°03'12 6.1
2016-Sep-19 09:33N 51°49' E 001°44'10 5.0
2016-Sep-19 07:33N 51°46' E 001°29'6 6.4
2016-Sep-19 06:33N 51°42' E 001°21'24 8.2
2016-Sep-19 03:33N 51°30' E 000°47'3 2.4
2016-Sep-19 02:30N 51°31' E 000°43'0 0.0
2016-Sep-19 00:34N 51°31' E 000°43'11 2.2
2016-Sep-18 19:34N 51°27' E 000°26'16 3.1
2016-Sep-18 14:23N 51°30' E 000°01'  
Track history (hours):
 
Tides and Currents Weather Stations Pressure Air Temp Water Temp Dewpoint Dewpoint Depression Visibility Wind Speed Wind Dir Waves Ship Positions

Morgenster

Last reported at 2016-Sep-26 01:33 UTC. Time now 2016-Sep-27 17:21 UTC.
Position N 52°57' E 004°46'.

Length 38 m; draft 2.4 m.

Type: Sailing vessel. MMSI: 245136000.

Date/timePositionNaut miles runAvg speedWind from/ knotsBaromVisibWave heightAir tempDewpointWater temp
2016-Sep-26 01:33N 52°57' E 004°46'0 0.0
2016-Sep-25 21:24N 52°57' E 004°46'0 0.0
2016-Sep-25 17:15N 52°57' E 004°46'0 0.0
2016-Sep-25 16:33N 52°57' E 004°46'0 0.0
2016-Sep-25 15:21N 52°57' E 004°46'0 0.0
2016-Sep-25 11:24N 52°57' E 004°46'0 0.0
2016-Sep-25 10:24N 52°57' E 004°46'0 0.0
2016-Sep-25 09:30N 52°57' E 004°46'0 0.0
2016-Sep-25 07:33N 52°57' E 004°46'0 0.0
2016-Sep-25 04:30N 52°57' E 004°46'0 0.0
2016-Sep-25 00:27N 52°57' E 004°46'0 0.0
2016-Sep-24 22:30N 52°57' E 004°46'0 0.0
2016-Sep-24 21:24N 52°57' E 004°46'0 0.0
2016-Sep-24 19:33N 52°57' E 004°46'0 0.0
2016-Sep-24 18:33N 52°57' E 004°46'0 0.0
2016-Sep-24 17:33N 52°57' E 004°46'0 0.0
2016-Sep-24 16:24N 52°57' E 004°46'1 0.3
2016-Sep-24 14:34N 52°57' E 004°47'2 1.0
2016-Sep-24 12:33N 52°59' E 004°46'0 0.1
2016-Sep-24 10:33N 52°59' E 004°46'2 2.5
2016-Sep-24 09:33N 52°57' E 004°47'1 0.1
2016-Sep-24 03:32N 52°57' E 004°46'0 0.0
2016-Sep-24 02:32N 52°57' E 004°46'0 0.0
2016-Sep-24 01:32N 52°57' E 004°46'0 0.0
2016-Sep-24 00:32N 52°57' E 004°46'0 0.0
2016-Sep-23 19:32N 52°57' E 004°46'0 0.0
2016-Sep-23 17:29N 52°57' E 004°46'0 0.0
2016-Sep-23 16:32N 52°57' E 004°46'0 0.0
2016-Sep-23 15:23N 52°57' E 004°46'0 0.0
2016-Sep-23 13:29N 52°58' E 004°46'0 0.0
2016-Sep-23 09:26N 52°57' E 004°46'0 0.0
2016-Sep-23 06:23N 52°57' E 004°46'0 0.0
2016-Sep-23 04:32N 52°57' E 004°46'0 0.0
2016-Sep-23 03:32N 52°57' E 004°46'0 0.0
2016-Sep-23 02:32N 52°57' E 004°46'0 0.0
2016-Sep-23 01:32N 52°57' E 004°46'0 0.0
2016-Sep-23 00:26N 52°57' E 004°46'0 0.0
2016-Sep-22 23:29N 52°57' E 004°46'0 0.0
2016-Sep-22 20:32N 52°57' E 004°46'0 0.0
2016-Sep-22 12:31N 52°57' E 004°46'0 0.0
2016-Sep-22 04:25N 52°57' E 004°46'0 0.0
2016-Sep-22 03:31N 52°57' E 004°46'0 0.0
2016-Sep-22 00:31N 52°57' E 004°46'0 0.0
2016-Sep-21 23:31N 52°57' E 004°46'0 0.0
2016-Sep-21 22:31N 52°57' E 004°46'0 0.0
2016-Sep-21 19:28N 52°57' E 004°46'0 0.0
2016-Sep-21 16:25N 52°57' E 004°46'0 0.0
2016-Sep-21 09:31N 52°57' E 004°46'0 0.0
2016-Sep-21 08:31N 52°57' E 004°46'0 0.0
2016-Sep-21 03:28N 52°57' E 004°46'0 0.0
2016-Sep-21 02:31N 52°57' E 004°46'0 0.0
2016-Sep-20 17:31N 52°57' E 004°46'0 0.0
2016-Sep-20 14:31N 52°57' E 004°46'0 0.0
2016-Sep-20 13:31N 52°57' E 004°46'0 0.0
2016-Sep-20 10:31N 52°57' E 004°46'0 0.0
2016-Sep-20 08:31N 52°57' E 004°46'0 0.3
2016-Sep-20 07:33N 52°57' E 004°47'6 5.9
2016-Sep-20 06:33N 52°54' E 004°38'114 6.0
2016-Sep-19 11:32N 51°51' E 002°03'12 6.1
2016-Sep-19 09:33N 51°49' E 001°44'10 5.0
2016-Sep-19 07:33N 51°46' E 001°29'6 6.4
2016-Sep-19 06:33N 51°42' E 001°21'24 8.2
2016-Sep-19 03:33N 51°30' E 000°47'3 2.4
2016-Sep-19 02:30N 51°31' E 000°43'0 0.0
2016-Sep-19 00:34N 51°31' E 000°43'11 2.2
2016-Sep-18 19:34N 51°27' E 000°26'16 3.1
2016-Sep-18 14:23N 51°30' E 000°01'  

Dump ship's entire track history